sensor_id;sensor_type;location;lat;lon;timestamp;P1;durP1;ratioP1;P2;durP2;ratioP2
19219;SDS011;9744;49.364;7.484;2023-11-19T00:01:33;40.60;;;7.13;;
19219;SDS011;9744;49.364;7.484;2023-11-19T00:04:00;9.52;;;6.05;;
19219;SDS011;9744;49.364;7.484;2023-11-19T00:06:30;72.68;;;8.27;;
19219;SDS011;9744;49.364;7.484;2023-11-19T00:08:57;41.55;;;7.15;;
19219;SDS011;9744;49.364;7.484;2023-11-19T00:14:54;112.18;;;9.10;;
19219;SDS011;9744;49.364;7.484;2023-11-19T00:17:23;118.28;;;10.98;;
19219;SDS011;9744;49.364;7.484;2023-11-19T00:19:50;14.82;;;6.05;;
19219;SDS011;9744;49.364;7.484;2023-11-19T00:22:18;51.50;;;7.53;;
19219;SDS011;9744;49.364;7.484;2023-11-19T00:24:47;411.75;;;22.73;;
19219;SDS011;9744;49.364;7.484;2023-11-19T00:31:16;520.92;;;23.70;;
19219;SDS011;9744;49.364;7.484;2023-11-19T00:33:44;379.58;;;19.55;;
19219;SDS011;9744;49.364;7.484;2023-11-19T00:36:12;165.10;;;10.48;;
19219;SDS011;9744;49.364;7.484;2023-11-19T00:38:39;341.48;;;15.93;;
19219;SDS011;9744;49.364;7.484;2023-11-19T00:41:06;48.67;;;6.32;;
19219;SDS011;9744;49.364;7.484;2023-11-19T00:43:34;63.63;;;6.55;;
19219;SDS011;9744;49.364;7.484;2023-11-19T00:46:01;8.43;;;4.35;;
19219;SDS011;9744;49.364;7.484;2023-11-19T00:48:30;11.57;;;4.95;;
19219;SDS011;9744;49.364;7.484;2023-11-19T00:50:59;87.00;;;7.85;;
19219;SDS011;9744;49.364;7.484;2023-11-19T00:53:26;20.58;;;6.00;;
19219;SDS011;9744;49.364;7.484;2023-11-19T00:55:53;103.25;;;10.80;;
19219;SDS011;9744;49.364;7.484;2023-11-19T01:02:21;40.58;;;6.50;;
19219;SDS011;9744;49.364;7.484;2023-11-19T01:04:48;215.60;;;15.25;;
19219;SDS011;9744;49.364;7.484;2023-11-19T01:07:17;278.67;;;15.38;;
19219;SDS011;9744;49.364;7.484;2023-11-19T01:09:44;133.77;;;8.70;;
19219;SDS011;9744;49.364;7.484;2023-11-19T01:12:11;560.38;;;23.73;;
19219;SDS011;9744;49.364;7.484;2023-11-19T01:18:32;748.53;;;35.63;;
19219;SDS011;9744;49.364;7.484;2023-11-19T01:20:59;244.10;;;15.25;;
19219;SDS011;9744;49.364;7.484;2023-11-19T01:23:27;617.90;;;30.42;;
19219;SDS011;9744;49.364;7.484;2023-11-19T01:25:55;611.50;;;32.20;;
19219;SDS011;9744;49.364;7.484;2023-11-19T01:28:22;843.13;;;41.50;;
19219;SDS011;9744;49.364;7.484;2023-11-19T01:30:50;872.55;;;44.05;;
19219;SDS011;9744;49.364;7.484;2023-11-19T01:33:17;834.95;;;40.95;;
19219;SDS011;9744;49.364;7.484;2023-11-19T01:39:46;724.33;;;38.35;;
19219;SDS011;9744;49.364;7.484;2023-11-19T01:42:14;765.38;;;38.10;;
19219;SDS011;9744;49.364;7.484;2023-11-19T01:44:41;969.95;;;47.15;;
19219;SDS011;9744;49.364;7.484;2023-11-19T01:47:08;1229.45;;;65.63;;
19219;SDS011;9744;49.364;7.484;2023-11-19T01:49:36;884.75;;;49.72;;
19219;SDS011;9744;49.364;7.484;2023-11-19T01:52:03;913.40;;;47.50;;
19219;SDS011;9744;49.364;7.484;2023-11-19T01:54:31;946.88;;;43.17;;
19219;SDS011;9744;49.364;7.484;2023-11-19T01:57:00;718.17;;;35.85;;
19219;SDS011;9744;49.364;7.484;2023-11-19T02:03:28;1178.22;;;58.58;;
19219;SDS011;9744;49.364;7.484;2023-11-19T02:05:56;1411.35;;;77.85;;
19219;SDS011;9744;49.364;7.484;2023-11-19T02:08:23;1022.42;;;53.78;;
19219;SDS011;9744;49.364;7.484;2023-11-19T02:10:51;1115.72;;;58.03;;
19219;SDS011;9744;49.364;7.484;2023-11-19T02:13:21;1108.60;;;57.33;;
19219;SDS011;9744;49.364;7.484;2023-11-19T02:15:50;1190.28;;;63.95;;
19219;SDS011;9744;49.364;7.484;2023-11-19T02:18:18;1259.93;;;65.80;;
19219;SDS011;9744;49.364;7.484;2023-11-19T02:20:47;1319.90;;;69.72;;
19219;SDS011;9744;49.364;7.484;2023-11-19T02:23:15;1406.05;;;65.50;;
19219;SDS011;9744;49.364;7.484;2023-11-19T02:25:43;1365.50;;;66.85;;
19219;SDS011;9744;49.364;7.484;2023-11-19T02:28:18;954.42;;;49.65;;
19219;SDS011;9744;49.364;7.484;2023-11-19T02:30:45;1124.78;;;60.78;;
19219;SDS011;9744;49.364;7.484;2023-11-19T02:33:12;1030.80;;;50.47;;
19219;SDS011;9744;49.364;7.484;2023-11-19T02:35:40;963.00;;;51.55;;
19219;SDS011;9744;49.364;7.484;2023-11-19T02:38:07;429.50;;;25.02;;
19219;SDS011;9744;49.364;7.484;2023-11-19T02:40:38;647.55;;;34.30;;
19219;SDS011;9744;49.364;7.484;2023-11-19T02:43:05;544.42;;;31.23;;
19219;SDS011;9744;49.364;7.484;2023-11-19T02:45:35;882.00;;;46.88;;
19219;SDS011;9744;49.364;7.484;2023-11-19T02:48:05;329.73;;;22.40;;
19219;SDS011;9744;49.364;7.484;2023-11-19T02:50:33;997.22;;;45.80;;
19219;SDS011;9744;49.364;7.484;2023-11-19T02:53:00;810.15;;;39.17;;
19219;SDS011;9744;49.364;7.484;2023-11-19T02:55:27;563.72;;;31.50;;
19219;SDS011;9744;49.364;7.484;2023-11-19T02:57:59;1031.88;;;49.22;;
19219;SDS011;9744;49.364;7.484;2023-11-19T03:00:30;1107.93;;;54.08;;
19219;SDS011;9744;49.364;7.484;2023-11-19T03:03:03;1081.93;;;59.80;;
19219;SDS011;9744;49.364;7.484;2023-11-19T03:05:46;931.78;;;52.58;;
19219;SDS011;9744;49.364;7.484;2023-11-19T03:08:15;827.20;;;43.22;;
19219;SDS011;9744;49.364;7.484;2023-11-19T03:10:45;1166.28;;;60.17;;
19219;SDS011;9744;49.364;7.484;2023-11-19T03:13:13;1405.60;;;67.75;;
19219;SDS011;9744;49.364;7.484;2023-11-19T03:19:35;1502.80;;;75.82;;
19219;SDS011;9744;49.364;7.484;2023-11-19T03:22:05;1475.47;;;77.03;;
19219;SDS011;9744;49.364;7.484;2023-11-19T03:24:36;1438.25;;;71.82;;
19219;SDS011;9744;49.364;7.484;2023-11-19T03:27:05;1126.53;;;55.67;;
19219;SDS011;9744;49.364;7.484;2023-11-19T03:29:32;1568.68;;;81.88;;
19219;SDS011;9744;49.364;7.484;2023-11-19T03:31:59;1823.88;;;85.30;;
19219;SDS011;9744;49.364;7.484;2023-11-19T03:34:27;1559.80;;;77.55;;
19219;SDS011;9744;49.364;7.484;2023-11-19T03:37:00;1352.15;;;63.53;;
19219;SDS011;9744;49.364;7.484;2023-11-19T03:43:22;1452.43;;;71.72;;
19219;SDS011;9744;49.364;7.484;2023-11-19T03:45:50;1550.15;;;80.53;;
19219;SDS011;9744;49.364;7.484;2023-11-19T03:48:19;1392.47;;;67.22;;
19219;SDS011;9744;49.364;7.484;2023-11-19T03:50:47;1871.03;;;91.90;;
19219;SDS011;9744;49.364;7.484;2023-11-19T03:53:16;1784.10;;;85.78;;
19219;SDS011;9744;49.364;7.484;2023-11-19T03:55:48;1319.20;;;65.85;;
19219;SDS011;9744;49.364;7.484;2023-11-19T03:58:15;1985.32;;;96.80;;
19219;SDS011;9744;49.364;7.484;2023-11-19T04:00:45;1873.72;;;91.30;;
19219;SDS011;9744;49.364;7.484;2023-11-19T04:03:16;1975.13;;;102.22;;
19219;SDS011;9744;49.364;7.484;2023-11-19T04:05:45;1851.00;;;93.43;;
19219;SDS011;9744;49.364;7.484;2023-11-19T04:08:12;1906.80;;;96.35;;
19219;SDS011;9744;49.364;7.484;2023-11-19T04:10:43;1999.90;;;106.18;;
19219;SDS011;9744;49.364;7.484;2023-11-19T04:13:10;1615.22;;;80.57;;
19219;SDS011;9744;49.364;7.484;2023-11-19T04:15:40;1875.05;;;94.65;;
19219;SDS011;9744;49.364;7.484;2023-11-19T04:18:08;1777.68;;;96.90;;
19219;SDS011;9744;49.364;7.484;2023-11-19T04:20:37;1942.57;;;96.55;;
19219;SDS011;9744;49.364;7.484;2023-11-19T04:23:04;1956.38;;;96.90;;
19219;SDS011;9744;49.364;7.484;2023-11-19T04:25:31;1619.47;;;86.20;;
19219;SDS011;9744;49.364;7.484;2023-11-19T04:28:00;1452.20;;;71.00;;
19219;SDS011;9744;49.364;7.484;2023-11-19T04:34:30;1671.57;;;82.57;;
19219;SDS011;9744;49.364;7.484;2023-11-19T04:37:10;1377.45;;;71.25;;
19219;SDS011;9744;49.364;7.484;2023-11-19T04:39:37;1999.90;;;106.18;;
19219;SDS011;9744;49.364;7.484;2023-11-19T04:42:05;1763.68;;;88.43;;
19219;SDS011;9744;49.364;7.484;2023-11-19T04:44:34;1563.43;;;80.97;;
19219;SDS011;9744;49.364;7.484;2023-11-19T04:47:01;1288.50;;;67.45;;
19219;SDS011;9744;49.364;7.484;2023-11-19T04:49:28;1844.40;;;94.82;;
19219;SDS011;9744;49.364;7.484;2023-11-19T04:51:56;1715.70;;;88.13;;
19219;SDS011;9744;49.364;7.484;2023-11-19T04:54:26;1998.68;;;89.80;;
19219;SDS011;9744;49.364;7.484;2023-11-19T04:56:53;1617.45;;;85.68;;
19219;SDS011;9744;49.364;7.484;2023-11-19T04:59:20;1999.90;;;98.18;;
19219;SDS011;9744;49.364;7.484;2023-11-19T05:01:50;1559.03;;;86.32;;
19219;SDS011;9744;49.364;7.484;2023-11-19T05:04:18;1842.30;;;94.68;;
19219;SDS011;9744;49.364;7.484;2023-11-19T05:06:47;1999.90;;;114.60;;
19219;SDS011;9744;49.364;7.484;2023-11-19T05:09:14;1798.97;;;101.82;;
19219;SDS011;9744;49.364;7.484;2023-11-19T05:11:41;1981.22;;;105.10;;
19219;SDS011;9744;49.364;7.484;2023-11-19T05:14:11;1537.35;;;86.72;;
19219;SDS011;9744;49.364;7.484;2023-11-19T05:16:42;1217.10;;;81.32;;
19219;SDS011;9744;49.364;7.484;2023-11-19T05:19:11;1397.80;;;77.40;;
19219;SDS011;9744;49.364;7.484;2023-11-19T05:21:41;1413.43;;;85.88;;
19219;SDS011;9744;49.364;7.484;2023-11-19T05:28:02;947.88;;;62.25;;
19219;SDS011;9744;49.364;7.484;2023-11-19T05:30:29;1614.95;;;95.43;;
19219;SDS011;9744;49.364;7.484;2023-11-19T05:33:00;890.15;;;59.42;;
19219;SDS011;9744;49.364;7.484;2023-11-19T05:35:28;215.45;;;28.15;;
19219;SDS011;9744;49.364;7.484;2023-11-19T05:37:55;343.67;;;31.55;;
19219;SDS011;9744;49.364;7.484;2023-11-19T05:40:23;919.85;;;59.28;;
19219;SDS011;9744;49.364;7.484;2023-11-19T05:42:50;677.60;;;46.08;;
19219;SDS011;9744;49.364;7.484;2023-11-19T05:45:18;63.80;;;21.85;;
19219;SDS011;9744;49.364;7.484;2023-11-19T05:47:45;448.92;;;39.42;;
19219;SDS011;9744;49.364;7.484;2023-11-19T05:50:12;69.28;;;23.00;;
19219;SDS011;9744;49.364;7.484;2023-11-19T05:52:42;48.35;;;20.65;;
19219;SDS011;9744;49.364;7.484;2023-11-19T05:55:09;64.55;;;22.63;;
19219;SDS011;9744;49.364;7.484;2023-11-19T05:57:36;64.88;;;22.83;;
19219;SDS011;9744;49.364;7.484;2023-11-19T06:00:05;114.20;;;24.70;;
19219;SDS011;9744;49.364;7.484;2023-11-19T06:02:39;67.47;;;22.38;;
19219;SDS011;9744;49.364;7.484;2023-11-19T06:05:06;114.50;;;22.80;;
19219;SDS011;9744;49.364;7.484;2023-11-19T06:07:37;63.40;;;21.40;;
19219;SDS011;9744;49.364;7.484;2023-11-19T06:10:06;52.15;;;20.60;;
19219;SDS011;9744;49.364;7.484;2023-11-19T06:12:35;53.13;;;20.42;;
19219;SDS011;9744;49.364;7.484;2023-11-19T06:15:04;54.55;;;21.40;;
19219;SDS011;9744;49.364;7.484;2023-11-19T06:17:34;51.95;;;20.20;;
19219;SDS011;9744;49.364;7.484;2023-11-19T06:20:02;55.35;;;21.23;;
19219;SDS011;9744;49.364;7.484;2023-11-19T06:22:30;58.03;;;20.15;;
19219;SDS011;9744;49.364;7.484;2023-11-19T06:24:57;50.67;;;20.75;;
19219;SDS011;9744;49.364;7.484;2023-11-19T06:27:26;151.45;;;25.98;;
19219;SDS011;9744;49.364;7.484;2023-11-19T06:29:54;63.03;;;22.38;;
19219;SDS011;9744;49.364;7.484;2023-11-19T06:32:21;238.60;;;27.30;;
19219;SDS011;9744;49.364;7.484;2023-11-19T06:34:48;442.40;;;34.42;;
19219;SDS011;9744;49.364;7.484;2023-11-19T06:37:15;356.95;;;29.02;;
19219;SDS011;9744;49.364;7.484;2023-11-19T06:39:43;202.00;;;24.85;;
19219;SDS011;9744;49.364;7.484;2023-11-19T06:42:10;72.45;;;19.30;;
19219;SDS011;9744;49.364;7.484;2023-11-19T06:44:39;41.17;;;16.20;;
19219;SDS011;9744;49.364;7.484;2023-11-19T06:47:06;123.95;;;17.88;;
19219;SDS011;9744;49.364;7.484;2023-11-19T06:49:33;33.85;;;13.13;;
19219;SDS011;9744;49.364;7.484;2023-11-19T06:52:00;18.50;;;8.30;;
19219;SDS011;9744;49.364;7.484;2023-11-19T06:54:27;12.48;;;6.28;;
19219;SDS011;9744;49.364;7.484;2023-11-19T06:56:56;14.00;;;6.30;;
19219;SDS011;9744;49.364;7.484;2023-11-19T06:59:23;15.23;;;7.38;;
19219;SDS011;9744;49.364;7.484;2023-11-19T07:01:53;87.53;;;12.10;;
19219;SDS011;9744;49.364;7.484;2023-11-19T07:04:20;22.35;;;11.25;;
19219;SDS011;9744;49.364;7.484;2023-11-19T07:06:48;34.63;;;13.60;;
19219;SDS011;9744;49.364;7.484;2023-11-19T07:09:15;49.95;;;15.82;;
19219;SDS011;9744;49.364;7.484;2023-11-19T07:11:44;39.92;;;16.23;;
19219;SDS011;9744;49.364;7.484;2023-11-19T07:14:11;35.38;;;15.63;;
19219;SDS011;9744;49.364;7.484;2023-11-19T07:16:39;32.80;;;15.25;;
19219;SDS011;9744;49.364;7.484;2023-11-19T07:19:07;32.78;;;16.17;;
19219;SDS011;9744;49.364;7.484;2023-11-19T07:21:34;32.20;;;14.70;;
19219;SDS011;9744;49.364;7.484;2023-11-19T07:24:05;33.25;;;15.52;;
19219;SDS011;9744;49.364;7.484;2023-11-19T07:26:32;32.17;;;15.32;;
19219;SDS011;9744;49.364;7.484;2023-11-19T07:28:59;29.08;;;15.77;;
19219;SDS011;9744;49.364;7.484;2023-11-19T07:31:27;39.00;;;15.88;;
19219;SDS011;9744;49.364;7.484;2023-11-19T07:33:55;41.10;;;18.08;;
19219;SDS011;9744;49.364;7.484;2023-11-19T07:36:24;37.00;;;16.45;;
19219;SDS011;9744;49.364;7.484;2023-11-19T07:38:51;38.72;;;15.80;;
19219;SDS011;9744;49.364;7.484;2023-11-19T07:41:18;44.42;;;16.35;;
19219;SDS011;9744;49.364;7.484;2023-11-19T07:43:45;38.67;;;16.50;;
19219;SDS011;9744;49.364;7.484;2023-11-19T07:46:13;35.15;;;15.57;;
19219;SDS011;9744;49.364;7.484;2023-11-19T07:48:41;35.25;;;15.23;;
19219;SDS011;9744;49.364;7.484;2023-11-19T07:51:10;37.50;;;15.27;;
19219;SDS011;9744;49.364;7.484;2023-11-19T07:53:39;26.25;;;14.63;;
19219;SDS011;9744;49.364;7.484;2023-11-19T07:56:07;34.08;;;15.43;;
19219;SDS011;9744;49.364;7.484;2023-11-19T07:58:34;40.97;;;15.43;;
19219;SDS011;9744;49.364;7.484;2023-11-19T08:01:02;43.33;;;16.55;;
19219;SDS011;9744;49.364;7.484;2023-11-19T08:03:29;36.35;;;16.83;;
19219;SDS011;9744;49.364;7.484;2023-11-19T08:05:59;39.08;;;15.75;;
19219;SDS011;9744;49.364;7.484;2023-11-19T08:08:26;41.28;;;17.35;;
19219;SDS011;9744;49.364;7.484;2023-11-19T08:10:56;35.85;;;17.55;;
19219;SDS011;9744;49.364;7.484;2023-11-19T08:13:23;55.40;;;27.98;;
19219;SDS011;9744;49.364;7.484;2023-11-19T08:15:51;43.90;;;22.88;;
19219;SDS011;9744;49.364;7.484;2023-11-19T08:18:18;45.25;;;20.20;;
19219;SDS011;9744;49.364;7.484;2023-11-19T08:20:45;47.92;;;22.83;;
19219;SDS011;9744;49.364;7.484;2023-11-19T08:23:18;47.78;;;22.38;;
19219;SDS011;9744;49.364;7.484;2023-11-19T08:25:45;46.55;;;21.65;;
19219;SDS011;9744;49.364;7.484;2023-11-19T08:28:13;48.85;;;21.85;;
19219;SDS011;9744;49.364;7.484;2023-11-19T08:30:41;45.80;;;19.85;;
19219;SDS011;9744;49.364;7.484;2023-11-19T08:33:09;46.58;;;20.70;;
19219;SDS011;9744;49.364;7.484;2023-11-19T08:35:36;34.63;;;18.08;;
19219;SDS011;9744;49.364;7.484;2023-11-19T08:38:04;47.85;;;21.42;;
19219;SDS011;9744;49.364;7.484;2023-11-19T08:40:31;44.58;;;19.02;;
19219;SDS011;9744;49.364;7.484;2023-11-19T08:42:58;31.85;;;17.48;;
19219;SDS011;9744;49.364;7.484;2023-11-19T08:45:26;43.50;;;18.77;;
19219;SDS011;9744;49.364;7.484;2023-11-19T08:47:54;48.13;;;19.88;;
19219;SDS011;9744;49.364;7.484;2023-11-19T08:50:21;29.45;;;13.73;;
19219;SDS011;9744;49.364;7.484;2023-11-19T08:52:48;36.72;;;17.70;;
19219;SDS011;9744;49.364;7.484;2023-11-19T08:55:15;35.38;;;17.25;;
19219;SDS011;9744;49.364;7.484;2023-11-19T08:57:42;38.03;;;17.15;;
19219;SDS011;9744;49.364;7.484;2023-11-19T09:00:10;32.22;;;14.40;;
19219;SDS011;9744;49.364;7.484;2023-11-19T09:02:41;32.83;;;16.58;;
19219;SDS011;9744;49.364;7.484;2023-11-19T09:05:08;32.08;;;14.93;;
19219;SDS011;9744;49.364;7.484;2023-11-19T09:07:35;20.38;;;13.20;;
19219;SDS011;9744;49.364;7.484;2023-11-19T09:10:03;23.60;;;12.98;;
19219;SDS011;9744;49.364;7.484;2023-11-19T09:12:31;27.85;;;12.35;;
19219;SDS011;9744;49.364;7.484;2023-11-19T09:14:58;25.70;;;12.70;;
19219;SDS011;9744;49.364;7.484;2023-11-19T09:17:25;19.58;;;8.32;;
19219;SDS011;9744;49.364;7.484;2023-11-19T09:19:54;15.20;;;8.73;;
19219;SDS011;9744;49.364;7.484;2023-11-19T09:22:21;17.52;;;7.25;;
19219;SDS011;9744;49.364;7.484;2023-11-19T09:24:48;16.92;;;6.25;;
19219;SDS011;9744;49.364;7.484;2023-11-19T09:27:16;19.92;;;5.63;;
19219;SDS011;9744;49.364;7.484;2023-11-19T09:29:43;18.02;;;8.80;;
19219;SDS011;9744;49.364;7.484;2023-11-19T09:32:12;18.02;;;5.13;;
19219;SDS011;9744;49.364;7.484;2023-11-19T09:34:39;11.50;;;5.10;;
19219;SDS011;9744;49.364;7.484;2023-11-19T09:37:07;10.85;;;4.00;;
19219;SDS011;9744;49.364;7.484;2023-11-19T09:39:34;15.65;;;5.68;;
19219;SDS011;9744;49.364;7.484;2023-11-19T09:42:02;14.40;;;3.63;;
19219;SDS011;9744;49.364;7.484;2023-11-19T09:44:30;10.82;;;3.60;;
19219;SDS011;9744;49.364;7.484;2023-11-19T09:46:57;8.85;;;2.80;;
19219;SDS011;9744;49.364;7.484;2023-11-19T09:49:26;9.63;;;2.60;;
19219;SDS011;9744;49.364;7.484;2023-11-19T09:51:53;8.50;;;3.05;;
19219;SDS011;9744;49.364;7.484;2023-11-19T09:54:22;9.52;;;1.88;;
19219;SDS011;9744;49.364;7.484;2023-11-19T09:56:49;7.80;;;2.00;;
19219;SDS011;9744;49.364;7.484;2023-11-19T09:59:17;8.13;;;1.60;;
19219;SDS011;9744;49.364;7.484;2023-11-19T10:01:45;9.98;;;1.92;;
19219;SDS011;9744;49.364;7.484;2023-11-19T10:04:14;7.57;;;2.20;;
19219;SDS011;9744;49.364;7.484;2023-11-19T10:06:43;9.27;;;1.58;;
19219;SDS011;9744;49.364;7.484;2023-11-19T10:09:11;5.47;;;1.90;;
19219;SDS011;9744;49.364;7.484;2023-11-19T10:11:42;8.85;;;2.75;;
19219;SDS011;9744;49.364;7.484;2023-11-19T10:14:09;6.20;;;2.58;;
19219;SDS011;9744;49.364;7.484;2023-11-19T10:16:36;10.65;;;2.70;;
19219;SDS011;9744;49.364;7.484;2023-11-19T10:19:05;11.48;;;4.00;;
19219;SDS011;9744;49.364;7.484;2023-11-19T10:21:32;11.60;;;2.28;;
19219;SDS011;9744;49.364;7.484;2023-11-19T10:24:00;4.03;;;2.15;;
19219;SDS011;9744;49.364;7.484;2023-11-19T10:26:28;6.30;;;2.13;;
19219;SDS011;9744;49.364;7.484;2023-11-19T10:28:57;8.32;;;2.25;;
19219;SDS011;9744;49.364;7.484;2023-11-19T10:31:24;6.03;;;1.75;;
19219;SDS011;9744;49.364;7.484;2023-11-19T10:33:51;6.05;;;1.88;;
19219;SDS011;9744;49.364;7.484;2023-11-19T10:36:19;9.90;;;1.70;;
19219;SDS011;9744;49.364;7.484;2023-11-19T10:38:53;7.78;;;1.15;;
19219;SDS011;9744;49.364;7.484;2023-11-19T10:41:27;4.35;;;1.40;;
19219;SDS011;9744;49.364;7.484;2023-11-19T10:43:54;9.45;;;1.30;;
19219;SDS011;9744;49.364;7.484;2023-11-19T10:46:23;6.70;;;1.67;;
19219;SDS011;9744;49.364;7.484;2023-11-19T10:49:03;12.00;;;1.63;;
19219;SDS011;9744;49.364;7.484;2023-11-19T10:51:31;7.65;;;1.27;;
19219;SDS011;9744;49.364;7.484;2023-11-19T10:54:01;8.57;;;1.50;;
19219;SDS011;9744;49.364;7.484;2023-11-19T10:56:31;7.13;;;1.90;;
19219;SDS011;9744;49.364;7.484;2023-11-19T10:59:00;5.80;;;1.48;;
19219;SDS011;9744;49.364;7.484;2023-11-19T11:01:43;6.45;;;1.60;;
19219;SDS011;9744;49.364;7.484;2023-11-19T11:04:12;8.13;;;0.82;;
19219;SDS011;9744;49.364;7.484;2023-11-19T11:06:42;5.07;;;1.17;;
19219;SDS011;9744;49.364;7.484;2023-11-19T11:09:09;6.07;;;1.52;;
19219;SDS011;9744;49.364;7.484;2023-11-19T11:11:38;12.10;;;2.95;;
19219;SDS011;9744;49.364;7.484;2023-11-19T11:14:10;5.97;;;1.05;;
19219;SDS011;9744;49.364;7.484;2023-11-19T11:16:40;4.15;;;1.67;;
19219;SDS011;9744;49.364;7.484;2023-11-19T11:19:09;5.25;;;1.50;;
19219;SDS011;9744;49.364;7.484;2023-11-19T11:21:38;6.18;;;1.13;;
19219;SDS011;9744;49.364;7.484;2023-11-19T11:24:13;5.85;;;1.70;;
19219;SDS011;9744;49.364;7.484;2023-11-19T11:26:55;4.53;;;0.68;;
19219;SDS011;9744;49.364;7.484;2023-11-19T11:29:45;5.55;;;1.20;;
19219;SDS011;9744;49.364;7.484;2023-11-19T11:32:20;8.80;;;1.17;;
19219;SDS011;9744;49.364;7.484;2023-11-19T11:35:08;9.32;;;1.10;;
19219;SDS011;9744;49.364;7.484;2023-11-19T11:37:46;3.47;;;0.70;;
19219;SDS011;9744;49.364;7.484;2023-11-19T11:40:17;7.25;;;0.70;;
19219;SDS011;9744;49.364;7.484;2023-11-19T11:42:44;3.88;;;1.10;;
19219;SDS011;9744;49.364;7.484;2023-11-19T11:45:14;5.43;;;0.70;;
19219;SDS011;9744;49.364;7.484;2023-11-19T11:50:50;3.42;;;0.68;;
19219;SDS011;9744;49.364;7.484;2023-11-19T11:53:23;4.63;;;1.02;;
19219;SDS011;9744;49.364;7.484;2023-11-19T11:55:52;4.07;;;0.77;;
19219;SDS011;9744;49.364;7.484;2023-11-19T11:58:31;4.22;;;0.60;;
19219;SDS011;9744;49.364;7.484;2023-11-19T12:01:01;4.95;;;0.98;;
19219;SDS011;9744;49.364;7.484;2023-11-19T12:03:31;4.32;;;0.93;;
19219;SDS011;9744;49.364;7.484;2023-11-19T12:05:59;7.35;;;0.93;;
19219;SDS011;9744;49.364;7.484;2023-11-19T12:08:27;5.65;;;0.95;;
19219;SDS011;9744;49.364;7.484;2023-11-19T12:10:56;4.88;;;1.00;;
19219;SDS011;9744;49.364;7.484;2023-11-19T12:13:24;5.00;;;0.68;;
19219;SDS011;9744;49.364;7.484;2023-11-19T12:16:14;6.03;;;0.65;;
19219;SDS011;9744;49.364;7.484;2023-11-19T12:18:41;15.10;;;0.93;;
19219;SDS011;9744;49.364;7.484;2023-11-19T12:21:08;4.60;;;0.77;;
19219;SDS011;9744;49.364;7.484;2023-11-19T12:23:45;4.30;;;1.10;;
19219;SDS011;9744;49.364;7.484;2023-11-19T12:26:34;3.42;;;0.63;;
19219;SDS011;9744;49.364;7.484;2023-11-19T12:29:03;6.15;;;0.95;;
19219;SDS011;9744;49.364;7.484;2023-11-19T12:31:33;4.90;;;0.82;;
19219;SDS011;9744;49.364;7.484;2023-11-19T12:34:07;4.25;;;0.90;;
19219;SDS011;9744;49.364;7.484;2023-11-19T12:36:37;5.30;;;1.42;;
19219;SDS011;9744;49.364;7.484;2023-11-19T12:39:06;19.98;;;5.30;;
19219;SDS011;9744;49.364;7.484;2023-11-19T12:41:48;6.65;;;1.67;;
19219;SDS011;9744;49.364;7.484;2023-11-19T12:44:16;11.50;;;2.45;;
19219;SDS011;9744;49.364;7.484;2023-11-19T12:46:45;5.97;;;1.30;;
19219;SDS011;9744;49.364;7.484;2023-11-19T12:49:13;3.42;;;0.90;;
19219;SDS011;9744;49.364;7.484;2023-11-19T12:51:40;7.53;;;1.15;;
19219;SDS011;9744;49.364;7.484;2023-11-19T12:54:07;4.05;;;1.08;;
19219;SDS011;9744;49.364;7.484;2023-11-19T12:56:34;4.82;;;1.02;;
19219;SDS011;9744;49.364;7.484;2023-11-19T12:59:10;4.20;;;0.77;;
19219;SDS011;9744;49.364;7.484;2023-11-19T13:01:38;6.68;;;1.02;;
19219;SDS011;9744;49.364;7.484;2023-11-19T13:04:17;6.82;;;1.20;;
19219;SDS011;9744;49.364;7.484;2023-11-19T13:06:45;7.28;;;0.95;;
19219;SDS011;9744;49.364;7.484;2023-11-19T13:09:22;5.07;;;1.20;;
19219;SDS011;9744;49.364;7.484;2023-11-19T13:11:50;5.75;;;0.82;;
19219;SDS011;9744;49.364;7.484;2023-11-19T13:14:18;9.10;;;1.40;;
19219;SDS011;9744;49.364;7.484;2023-11-19T13:16:46;6.95;;;1.20;;
19219;SDS011;9744;49.364;7.484;2023-11-19T13:19:14;7.85;;;1.15;;
19219;SDS011;9744;49.364;7.484;2023-11-19T13:21:45;4.90;;;1.65;;
19219;SDS011;9744;49.364;7.484;2023-11-19T13:24:13;5.47;;;1.15;;
19219;SDS011;9744;49.364;7.484;2023-11-19T13:26:41;6.53;;;1.50;;
19219;SDS011;9744;49.364;7.484;2023-11-19T13:29:08;4.38;;;1.42;;
19219;SDS011;9744;49.364;7.484;2023-11-19T13:31:36;8.20;;;1.13;;
19219;SDS011;9744;49.364;7.484;2023-11-19T13:34:03;8.45;;;1.20;;
19219;SDS011;9744;49.364;7.484;2023-11-19T13:36:32;6.47;;;1.38;;
19219;SDS011;9744;49.364;7.484;2023-11-19T13:39:01;5.63;;;1.55;;
19219;SDS011;9744;49.364;7.484;2023-11-19T13:41:29;7.97;;;1.45;;
19219;SDS011;9744;49.364;7.484;2023-11-19T13:43:56;4.75;;;1.52;;
19219;SDS011;9744;49.364;7.484;2023-11-19T13:46:24;7.35;;;1.23;;
19219;SDS011;9744;49.364;7.484;2023-11-19T13:48:51;5.20;;;0.95;;
19219;SDS011;9744;49.364;7.484;2023-11-19T13:51:18;4.28;;;0.80;;
19219;SDS011;9744;49.364;7.484;2023-11-19T13:53:46;6.38;;;1.25;;
19219;SDS011;9744;49.364;7.484;2023-11-19T13:56:15;9.80;;;1.58;;
19219;SDS011;9744;49.364;7.484;2023-11-19T13:58:43;8.25;;;1.23;;
19219;SDS011;9744;49.364;7.484;2023-11-19T14:01:10;5.57;;;1.25;;
19219;SDS011;9744;49.364;7.484;2023-11-19T14:03:39;6.07;;;1.27;;
19219;SDS011;9744;49.364;7.484;2023-11-19T14:06:07;10.85;;;1.63;;
19219;SDS011;9744;49.364;7.484;2023-11-19T14:08:34;6.65;;;0.98;;
19219;SDS011;9744;49.364;7.484;2023-11-19T14:11:01;4.20;;;1.05;;
19219;SDS011;9744;49.364;7.484;2023-11-19T14:13:30;6.45;;;1.05;;
19219;SDS011;9744;49.364;7.484;2023-11-19T14:15:58;7.18;;;1.00;;
19219;SDS011;9744;49.364;7.484;2023-11-19T14:18:25;3.92;;;0.90;;
19219;SDS011;9744;49.364;7.484;2023-11-19T14:20:52;5.68;;;1.25;;
19219;SDS011;9744;49.364;7.484;2023-11-19T14:23:19;7.22;;;1.23;;
19219;SDS011;9744;49.364;7.484;2023-11-19T14:25:46;6.70;;;0.80;;
19219;SDS011;9744;49.364;7.484;2023-11-19T14:28:15;7.78;;;1.23;;
19219;SDS011;9744;49.364;7.484;2023-11-19T14:30:45;7.85;;;1.50;;
19219;SDS011;9744;49.364;7.484;2023-11-19T14:33:13;5.32;;;1.13;;
19219;SDS011;9744;49.364;7.484;2023-11-19T14:35:40;6.20;;;1.17;;
19219;SDS011;9744;49.364;7.484;2023-11-19T14:38:08;11.20;;;1.20;;
19219;SDS011;9744;49.364;7.484;2023-11-19T14:40:36;8.52;;;1.42;;
19219;SDS011;9744;49.364;7.484;2023-11-19T14:43:05;4.30;;;1.08;;
19219;SDS011;9744;49.364;7.484;2023-11-19T14:45:35;9.50;;;1.13;;
19219;SDS011;9744;49.364;7.484;2023-11-19T14:48:04;7.72;;;1.30;;
19219;SDS011;9744;49.364;7.484;2023-11-19T14:50:31;4.72;;;1.10;;
19219;SDS011;9744;49.364;7.484;2023-11-19T14:52:59;9.55;;;1.85;;
19219;SDS011;9744;49.364;7.484;2023-11-19T14:55:26;8.60;;;1.48;;
19219;SDS011;9744;49.364;7.484;2023-11-19T14:57:53;6.88;;;1.40;;
19219;SDS011;9744;49.364;7.484;2023-11-19T15:00:22;12.73;;;1.33;;
19219;SDS011;9744;49.364;7.484;2023-11-19T15:02:51;8.90;;;0.70;;
19219;SDS011;9744;49.364;7.484;2023-11-19T15:05:19;11.77;;;1.27;;
19219;SDS011;9744;49.364;7.484;2023-11-19T15:07:46;6.93;;;1.23;;
19219;SDS011;9744;49.364;7.484;2023-11-19T15:10:14;10.25;;;1.70;;
19219;SDS011;9744;49.364;7.484;2023-11-19T15:12:42;7.57;;;1.15;;
19219;SDS011;9744;49.364;7.484;2023-11-19T15:15:09;15.40;;;1.60;;
19219;SDS011;9744;49.364;7.484;2023-11-19T15:17:39;8.20;;;1.40;;
19219;SDS011;9744;49.364;7.484;2023-11-19T15:20:07;11.10;;;1.45;;
19219;SDS011;9744;49.364;7.484;2023-11-19T15:22:36;5.97;;;1.60;;
19219;SDS011;9744;49.364;7.484;2023-11-19T15:25:03;11.02;;;2.30;;
19219;SDS011;9744;49.364;7.484;2023-11-19T15:27:35;9.13;;;1.70;;
19219;SDS011;9744;49.364;7.484;2023-11-19T15:30:02;15.30;;;1.52;;